Time;durP1;ratioP1;P1;durP2;ratioP2;P2;SDS_P1;SDS_P2;PMS_P1;PMS_P2;Temp;Humidity;BMP_temperature;BMP_pressure;BME280_temperature;BME280_humidity;BME280_pressure;Samples;Min_cycle;Max_cycle;Signal;HPM_P1;HPM_P2
2024/04/24 00:01:23;;;;;;;11.63;3.40;;;;;;;13.57;68.07;98155.69;5038079;28;20113;-96
2024/04/24 00:03:54;;;;;;;6.25;3.05;;;;;;;13.54;67.50;98146.31;5037401;28;20318;-96
2024/04/24 00:06:21;;;;;;;8.10;3.38;;;;;;;13.80;67.58;98167.13;5038590;28;20010;-94
2024/04/24 00:08:50;;;;;;;6.80;3.03;;;;;;;13.68;68.07;98138.03;5064029;28;20013;-96
2024/04/24 00:11:22;;;;;;;12.98;3.88;;;;;;;13.70;67.46;98142.00;5039136;28;20003;-96
2024/04/24 00:13:50;;;;;;;7.18;3.17;;;;;;;13.76;67.27;98142.66;5038325;28;20410;-96
2024/04/24 00:16:18;;;;;;;7.75;3.35;;;;;;;13.95;67.42;98155.84;5063550;28;20007;-95
2024/04/24 00:18:44;;;;;;;11.88;3.30;;;;;;;13.82;67.07;98130.53;5037168;28;20002;-96
2024/04/24 00:21:10;;;;;;;7.20;2.92;;;;;;;13.77;67.36;98129.91;5036049;28;19999;-96
2024/04/24 00:23:38;;;;;;;12.07;3.38;;;;;;;13.87;67.84;98141.19;5037542;28;19998;-95
2024/04/24 00:26:03;;;;;;;10.60;3.30;;;;;;;13.65;67.94;98115.09;5037291;28;20002;-96
2024/04/24 00:28:29;;;;;;;11.68;3.40;;;;;;;13.78;68.00;98107.94;5036927;28;20006;-96
2024/04/24 00:31:01;;;;;;;12.35;3.90;;;;;;;13.82;67.88;98100.78;5036235;28;20013;-96
2024/04/24 00:33:26;;;;;;;;;;;;;;;13.86;68.15;98100.91;5063157;28;20003;-96
2024/04/24 00:35:52;;;;;;;10.65;3.22;;;;;;;13.82;67.82;98098.09;5061745;28;19930;-95
2024/04/24 00:38:18;;;;;;;10.07;3.50;;;;;;;13.90;67.58;98104.56;5034957;28;19999;-96
2024/04/24 00:40:46;;;;;;;8.30;3.25;;;;;;;13.91;67.28;98109.66;5034502;28;20003;-95
2024/04/24 00:43:12;;;;;;;10.13;3.50;;;;;;;13.87;67.41;98111.44;5060698;28;20003;-95
2024/04/24 00:45:38;;;;;;;11.05;3.42;;;;;;;13.85;67.60;98089.31;5036158;28;20077;-94
2024/04/24 00:48:04;;;;;;;11.35;3.67;;;;;;;14.07;67.03;98101.03;5040558;28;20006;-96
2024/04/24 00:50:32;;;;;;;12.05;3.40;;;;;;;13.90;66.94;98055.88;5039104;28;20083;-96
2024/04/24 00:53:07;;;;;;;8.02;2.83;;;;;;;13.93;67.04;98061.44;5038512;28;20009;-96
2024/04/24 00:55:33;;;;;;;9.73;3.20;;;;;;;14.08;67.07;98076.34;5041667;28;20013;-96
2024/04/24 00:57:58;;;;;;;12.80;4.07;;;;;;;14.04;67.02;98088.16;5038530;28;19999;-96
2024/04/24 01:00:24;;;;;;;10.90;3.10;;;;;;;14.05;67.24;98105.97;5038312;28;19998;-96
2024/04/24 01:02:50;;;;;;;14.05;4.05;;;;;;;14.08;67.35;98125.06;5063593;28;20009;-96
2024/04/24 01:05:15;;;;;;;9.82;3.17;;;;;;;13.96;66.87;98119.53;5064129;28;20010;-96
2024/04/24 01:07:41;;;;;;;12.50;3.35;;;;;;;14.00;67.50;98131.28;5039117;28;20031;-94
2024/04/24 01:10:17;;;;;;;13.93;3.40;;;;;;;13.98;67.14;98122.69;5037873;28;20018;-95
2024/04/24 01:12:47;;;;;;;11.95;4.13;;;;;;;14.01;67.62;98141.03;5064199;28;20083;-95
2024/04/24 01:15:19;;;;;;;8.95;4.13;;;;;;;13.92;67.31;98142.94;5065498;28;20009;-95
2024/04/24 01:17:45;;;;;;;;;;;;;;;14.03;67.36;98154.22;5093113;28;20008;-96
2024/04/24 01:20:13;;;;;;;16.17;4.32;;;;;;;13.80;67.83;98137.38;5065556;28;19930;-96
2024/04/24 01:22:48;;;;;;;12.75;4.28;;;;;;;13.74;67.96;98129.44;5037763;28;19995;-94
2024/04/24 01:25:34;;;;;;;14.27;3.88;;;;;;;13.92;68.15;98162.69;5089591;28;20303;-95
2024/04/24 01:28:02;;;;;;;9.38;3.58;;;;;;;13.71;67.42;98137.38;5090295;28;20006;-95
2024/04/24 01:30:28;;;;;;;11.82;3.58;;;;;;;13.80;68.00;98146.31;5037653;28;20035;-95
2024/04/24 01:32:53;;;;;;;11.40;3.95;;;;;;;13.74;67.99;98139.47;5038033;28;20010;-96
2024/04/24 01:35:19;;;;;;;12.68;3.97;;;;;;;13.79;68.25;98141.22;5037936;28;20002;-96
2024/04/24 01:37:45;;;;;;;8.48;3.72;;;;;;;13.64;68.63;98118.94;5036596;28;19998;-96
2024/04/24 01:40:10;;;;;;;18.40;4.35;;;;;;;13.58;68.97;98112.09;5063551;28;20457;-96
2024/04/24 01:42:39;;;;;;;17.08;4.28;;;;;;;13.50;69.80;98110.19;5038083;28;20007;-96
2024/04/24 01:45:06;;;;;;;10.18;4.93;;;;;;;13.45;69.59;98108.44;5038621;28;20312;-95
2024/04/24 01:47:32;;;;;;;10.57;5.05;;;;;;;13.48;69.86;98115.91;5063891;28;20014;-96
2024/04/24 01:49:58;;;;;;;13.88;4.32;;;;;;;13.47;70.21;98116.25;5038341;28;20006;-96
2024/04/24 01:52:24;;;;;;;8.13;3.97;;;;;;;13.54;70.01;98128.16;5037650;28;20007;-96
2024/04/24 01:54:52;;;;;;;6.70;3.95;;;;;;;13.43;70.50;98118.00;5063428;28;19999;-96
2024/04/24 01:57:17;;;;;;;9.25;3.72;;;;;;;13.29;70.58;98094.59;5063933;28;20030;-95
2024/04/24 01:59:45;;;;;;;7.22;3.70;;;;;;;13.28;70.49;98097.59;5063633;28;20003;-96
2024/04/24 02:02:11;;;;;;;9.95;4.47;;;;;;;13.17;71.65;98093.63;5037782;28;20351;-96
2024/04/24 02:04:40;;;;;;;15.65;4.22;;;;;;;13.27;71.61;98117.63;5038583;28;20011;-96
2024/04/24 02:07:05;;;;;;;9.32;3.85;;;;;;;13.16;71.82;98106.34;5062868;28;20017;-95
2024/04/24 02:09:31;;;;;;;13.13;4.55;;;;;;;13.07;72.02;98098.22;5036094;28;20003;-94
2024/04/24 02:11:59;;;;;;;8.02;3.75;;;;;;;13.11;72.27;98115.41;5061126;28;20008;-96
2024/04/24 02:14:24;;;;;;;8.88;4.13;;;;;;;13.02;72.50;98102.97;5036140;28;20002;-95
2024/04/24 02:16:52;;;;;;;15.77;4.10;;;;;;;13.02;72.92;98109.19;5040648;28;19998;-96
2024/04/24 02:19:18;;;;;;;7.50;3.97;;;;;;;13.08;73.31;98129.53;5063373;28;20009;-95
2024/04/24 02:21:53;;;;;;;13.07;3.92;;;;;;;12.96;72.99;98099.63;5063453;28;20007;-96
2024/04/24 02:27:03;;;;;;;10.77;3.95;;;;;;;12.95;73.48;98119.66;5066850;28;20027;-96
2024/04/24 02:29:29;;;;;;;8.77;4.65;;;;;;;12.91;73.90;98127.59;5062242;28;20379;-94
2024/04/24 02:31:57;;;;;;;10.25;3.83;;;;;;;12.86;74.21;98126.94;5036095;28;20007;-95
2024/04/24 02:34:23;;;;;;;17.55;4.60;;;;;;;12.64;74.20;98112.44;5036667;28;20017;-95
2024/04/24 02:36:49;;;;;;;12.68;4.50;;;;;;;12.56;74.47;98110.50;5035443;28;20015;-94
2024/04/24 02:39:17;;;;;;;21.90;5.18;;;;;;;12.60;74.69;98108.75;5035708;28;20017;-94
2024/04/24 02:41:42;;;;;;;12.43;4.45;;;;;;;12.60;74.90;98122.25;5036099;28;20039;-93
2024/04/24 02:44:08;;;;;;;13.20;4.78;;;;;;;12.57;75.20;98125.56;5035519;28;20014;-94
2024/04/24 02:46:34;;;;;;;11.55;4.45;;;;;;;12.64;74.99;98146.75;5035162;28;20009;-93
2024/04/24 02:48:59;;;;;;;15.90;4.60;;;;;;;12.47;75.31;98137.47;5035866;28;20009;-93
2024/04/24 02:51:29;;;;;;;10.30;4.25;;;;;;;12.36;75.69;98124.53;5039667;28;20002;-94
2024/04/24 02:53:54;;;;;;;9.10;4.50;;;;;;;12.42;75.84;98142.19;5068593;28;20431;-93
2024/04/24 02:56:20;;;;;;;13.88;4.93;;;;;;;12.38;75.87;98143.91;5035592;28;20010;-93
2024/04/24 02:58:46;;;;;;;16.63;4.63;;;;;;;12.25;75.85;98146.41;5035523;28;20005;-95
2024/04/24 03:01:15;;;;;;;14.60;4.00;;;;;;;12.41;75.73;98152.19;5061244;28;20079;-95
2024/04/24 03:03:41;;;;;;;9.30;3.78;;;;;;;12.30;75.80;98140.06;5061670;28;20002;-94
2024/04/24 03:06:09;;;;;;;14.20;4.35;;;;;;;12.30;75.48;98157.06;5035873;28;20002;-94
2024/04/24 03:08:37;;;;;;;13.25;4.40;;;;;;;12.27;75.86;98154.97;5034432;28;20007;-95
2024/04/24 03:11:07;;;;;;;17.48;5.68;;;;;;;12.25;77.22;98168.00;5036046;28;20003;-94
2024/04/24 03:13:32;;;;;;;13.52;5.07;;;;;;;12.15;78.18;98162.06;5062258;28;20007;-94
2024/04/24 03:16:04;;;;;;;9.75;4.68;;;;;;;12.07;78.03;98150.09;5039331;28;20055;-94
2024/04/24 03:18:33;;;;;;;13.60;5.28;;;;;;;12.06;78.08;98154.72;4978499;28;19999;-94
2024/04/24 03:21:01;;;;;;;11.90;4.78;;;;;;;12.17;78.56;98170.66;4981972;28;20029;-93
2024/04/24 03:23:27;;;;;;;12.00;4.57;;;;;;;12.17;77.96;98166.03;4978565;28;19996;-94
2024/04/24 03:25:56;;;;;;;14.18;5.18;;;;;;;12.30;77.98;98184.03;4978768;28;20014;-94
2024/04/24 03:28:21;;;;;;;9.70;5.35;;;;;;;12.28;78.42;98191.66;4950236;28;20008;-95
2024/04/24 03:30:47;;;;;;;11.80;5.20;;;;;;;12.33;78.18;98183.44;4949775;28;20004;-93
2024/04/24 03:33:13;;;;;;;10.00;5.30;;;;;;;12.24;78.64;98181.78;4951737;28;20024;-92
2024/04/24 03:35:39;;;;;;;15.30;5.28;;;;;;;12.18;78.48;98174.91;4952602;28;20004;-91
2024/04/24 03:38:05;;;;;;;12.50;5.00;;;;;;;12.28;78.48;98194.34;4948424;28;20010;-92
2024/04/24 03:40:33;;;;;;;10.02;4.57;;;;;;;12.13;78.28;98170.47;4974634;28;20089;-92
2024/04/24 03:43:03;;;;;;;12.73;5.00;;;;;;;12.37;77.64;98207.09;4978299;28;20020;-92
2024/04/24 03:45:29;;;;;;;16.40;4.60;;;;;;;12.34;77.79;98203.91;4971308;28;20015;-91
2024/04/24 03:47:54;;;;;;;12.90;5.40;;;;;;;12.43;77.31;98212.09;4995714;28;20004;-91
2024/04/24 03:50:20;;;;;;;10.35;4.72;;;;;;;12.43;77.24;98206.69;4971906;28;20006;-89
2024/04/24 03:52:46;;;;;;;15.90;5.05;;;;;;;12.47;77.60;98221.16;4973934;28;20440;-91
2024/04/24 03:55:11;;;;;;;25.80;6.20;;;;;;;12.40;77.52;98212.69;4956212;28;20004;-90
2024/04/24 03:57:37;;;;;;;14.98;5.80;;;;;;;12.59;77.35;98233.28;4961933;28;20040;-92
2024/04/24 04:00:03;;;;;;;19.35;5.50;;;;;;;12.58;77.35;98224.38;4950742;28;20025;-91
2024/04/24 04:02:29;;;;;;;13.88;6.15;;;;;;;12.59;77.11;98230.56;4964326;28;20073;-91
2024/04/24 04:04:54;;;;;;;24.05;9.02;;;;;;;12.63;77.09;98218.06;4946645;28;20004;-93
2024/04/24 04:07:20;;;;;;;20.00;7.65;;;;;;;12.73;76.71;98225.88;4972256;28;20050;-92
2024/04/24 04:09:48;;;;;;;16.23;6.90;;;;;;;12.72;76.18;98221.56;4999048;28;20007;-92
2024/04/24 04:12:16;;;;;;;18.08;6.80;;;;;;;12.81;75.88;98222.44;5008062;28;20159;-92
2024/04/24 04:15:02;;;;;;;21.75;9.07;;;;;;;12.88;75.30;98227.38;5004554;28;20014;-92
2024/04/24 04:17:28;;;;;;;27.42;9.23;;;;;;;13.02;75.40;98254.31;5038622;28;20006;-93
2024/04/24 04:19:58;;;;;;;19.38;7.32;;;;;;;13.03;75.78;98239.66;5004636;28;19999;-91
2024/04/24 04:22:25;;;;;;;18.30;7.95;;;;;;;13.04;75.86;98236.66;5008098;28;19999;-93
2024/04/24 04:24:54;;;;;;;18.73;6.72;;;;;;;13.08;74.97;98242.25;5005431;28;20003;-91
2024/04/24 04:27:20;;;;;;;24.52;6.38;;;;;;;13.09;75.18;98241.94;5006340;28;19999;-94
2024/04/24 04:30:17;;;;;;;22.50;6.90;;;;;;;13.14;75.26;98249.09;5005929;28;20004;-94
2024/04/24 04:32:45;;;;;;;17.02;6.43;;;;;;;13.19;75.08;98251.66;5021830;28;20431;-93
2024/04/24 04:35:12;;;;;;;17.60;5.63;;;;;;;13.22;75.03;98252.91;5036004;28;20010;-93
2024/04/24 04:37:37;;;;;;;25.05;10.43;;;;;;;13.35;74.49;98252.06;5061772;28;20025;-93
2024/04/24 04:40:04;;;;;;;22.38;7.50;;;;;;;13.37;73.85;98246.34;5035843;28;20010;-93
2024/04/24 04:42:38;;;;;;;16.80;6.85;;;;;;;13.53;73.40;98263.72;5063142;28;20011;-93
2024/04/24 04:45:07;;;;;;;30.05;7.85;;;;;;;13.66;73.41;98270.09;5039545;28;20017;-95
2024/04/24 04:47:34;;;;;;;22.63;7.18;;;;;;;13.65;74.14;98277.41;5064001;28;20002;-92
2024/04/24 04:50:06;;;;;;;25.13;7.38;;;;;;;13.79;73.47;98290.81;5040170;28;20124;-92
2024/04/24 04:52:34;;;;;;;22.60;7.22;;;;;;;13.69;72.88;98261.34;5039035;28;20002;-92
2024/04/24 04:55:13;;;;;;;;;;;;;;;;;;;;;
2024/04/24 04:57:39;;;;;;;15.63;8.00;;;;;;;14.08;72.90;98298.31;5064914;28;20350;-92
2024/04/24 05:00:15;;;;;;;21.05;7.32;;;;;;;14.11;72.19;98294.97;5060483;28;20010;-95
2024/04/24 05:02:47;;;;;;;21.83;6.70;;;;;;;14.04;71.48;98272.19;5065571;28;20457;-91
2024/04/24 05:05:23;;;;;;;66.30;31.45;;;;;;;14.35;71.19;98296.41;5057863;28;20092;-91
2024/04/24 05:07:54;;;;;;;23.30;7.57;;;;;;;14.22;70.77;98268.38;5058153;28;20003;-92
2024/04/24 05:10:51;;;;;;;23.20;7.53;;;;;;;14.41;70.70;98280.78;5057242;28;20035;-93
2024/04/24 05:13:20;;;;;;;21.20;8.35;;;;;;;14.59;69.86;98298.63;5060588;28;20040;-95
2024/04/24 05:16:30;;;;;;;18.38;8.20;;;;;;;14.65;69.69;98281.09;5059922;28;20172;-95
2024/04/24 05:19:45;;;;;;;17.35;7.03;;;;;;;14.84;69.17;98301.63;5088154;28;20408;-94
2024/04/24 05:22:46;;;;;;;22.95;7.15;;;;;;;14.81;68.58;98289.50;5050862;28;20060;-92
2024/04/24 05:25:10;;;;;;;20.83;7.90;;;;;;;14.88;68.15;98289.81;5089239;28;20048;-93
2024/04/24 05:31:40;;;;;;;;;;;;;;;;;;;;;
2024/04/24 05:37:08;;;;;;;;;;;;;;;;;;;;;
2024/04/24 05:40:13;;;;;;;;;;;;;;;;;;;;;
2024/04/24 05:42:51;;;;;;;6.45;2.38;;;;;;;15.02;65.34;98297.72;5122614;27;20009;-90
2024/04/24 05:46:06;;;;;;;8.73;2.70;;;;;;;14.95;65.66;98283.88;5101537;27;20082;-92
2024/04/24 05:51:53;;;;;;;6.95;3.17;;;;;;;15.04;65.61;98294.69;5096422;27;20012;-96
2024/04/24 05:54:42;;;;;;;15.30;3.65;;;;;;;14.98;65.97;98291.34;5101801;27;20175;-93
2024/04/24 05:57:22;;;;;;;;;;;;;;;;;;;;;
2024/04/24 06:00:10;;;;;;;;;;;;;;;;;;;;;
2024/04/24 06:03:37;;;;;;;;;;;;;;;;;;;;;
2024/04/24 06:17:26;;;;;;;8.93;3.13;;;;;;;15.15;66.48;98355.59;5133570;27;20029;-95
2024/04/24 06:56:38;;;;;;;16.30;3.65;;;;;;;16.06;62.66;98339.03;5291070;22;20018;-96
2024/04/24 06:59:21;;;;;;;;;;;;;;;;;;;;;
2024/04/24 07:32:25;;;;;;;11.35;3.80;;;;;;;17.82;58.54;98380.50;5595234;22;20025;-95
2024/04/24 08:08:46;;;;;;;5.57;2.95;;;;;;;18.06;57.29;98391.41;4998456;28;20003;-96
2024/04/24 09:55:41;;;;;;;6.80;2.90;;;;;;;19.75;52.02;98358.63;5457587;22;20370;31
2024/04/24 10:16:27;;;;;;;8.98;2.42;;;;;;;19.67;52.80;98340.47;5706190;22;20336;-92
2024/04/24 10:36:41;;;;;;;4.53;2.00;;;;;;;19.57;52.16;98327.34;5034663;28;20046;-93
2024/04/24 11:00:45;;;;;;;5.22;2.38;;;;;;;19.95;51.30;98351.28;4927869;29;20017;-94
2024/04/24 11:03:37;;;;;;;3.60;2.22;;;;;;;20.04;49.46;98355.75;4880648;29;20011;-94
2024/04/24 12:21:18;;;;;;;;;;;;;;;;;;;;;
2024/04/24 12:52:10;;;;;;;4.25;1.63;;;;;;;21.17;46.23;98281.78;6338641;22;19999;-95
2024/04/24 12:58:03;;;;;;;3.80;1.42;;;;;;;21.18;45.27;98280.63;6388803;22;20081;-95
2024/04/24 13:21:09;;;;;;;6.65;1.70;;;;;;;21.32;45.13;98258.94;6318290;22;20080;-95
2024/04/24 13:24:11;;;;;;;;;;;;;;;;;;;;;
2024/04/24 13:30:09;;;;;;;5.05;1.90;;;;;;;21.39;44.49;98242.66;6174673;23;19920;-96
2024/04/24 13:34:07;;;;;;;;;;;;;;;;;;;;;
2024/04/24 13:39:36;;;;;;;3.35;1.33;;;;;;;21.29;43.92;98245.19;6175638;23;20001;-96
2024/04/24 13:43:07;;;;;;;;;;;;;;;;;;;;;
2024/04/24 13:49:11;;;;;;;;;;;;;;;;;;;;;
2024/04/24 13:54:48;;;;;;;7.82;3.38;;;;;;;21.54;44.86;98259.28;6362634;22;20035;-95
2024/04/24 14:03:50;;;;;;;5.22;2.33;;;;;;;21.67;44.25;98230.53;6154004;22;20037;-93
2024/04/24 14:52:10;;;;;;;;;;;;;;;;;;;;;
2024/04/24 14:57:46;;;;;;;;;;;;;;;23.33;41.05;98236.63;6368041;22;20013;-94
2024/04/24 15:01:14;;;;;;;;;;;;;;;;;;;;;
2024/04/24 15:15:08;;;;;;;;;;;;;;;;;;;;;
2024/04/24 15:18:31;;;;;;;;;;;;;;;;;;;;;
2024/04/24 15:21:19;;;;;;;5.85;2.10;;;;;;;22.29;43.63;98207.44;5781790;24;20005;-96
2024/04/24 15:24:16;;;;;;;5.20;1.90;;;;;;;22.39;42.79;98184.81;5839421;24;20038;-94
2024/04/24 15:29:49;;;;;;;8.27;2.17;;;;;;;22.60;42.71;98179.53;5886233;24;20002;-96
2024/04/24 15:32:37;;;;;;;5.00;1.73;;;;;;;22.27;42.81;98179.63;6089447;23;20295;-94
2024/04/24 15:35:50;;;;;;;5.15;1.92;;;;;;;22.10;43.85;98214.66;6106614;23;19990;-93
2024/04/24 15:41:57;;;;;;;;;;;;;;;;;;;;;
2024/04/24 15:44:37;;;;;;;7.22;1.83;;;;;;;21.09;45.60;98187.03;6050728;23;19996;-93
2024/04/24 15:47:48;;;;;;;;;;;;;;;;;;;;;
2024/04/24 15:50:35;;;;;;;4.00;1.80;;;;;;;21.02;46.60;98215.06;6175057;22;20061;-92
2024/04/24 15:53:01;;;;;;;5.63;2.03;;;;;;;20.97;46.80;98191.53;6335508;22;20004;-95
2024/04/24 15:58:16;;;;;;;3.72;1.70;;;;;;;20.78;47.00;98167.78;6332941;22;20012;-94
2024/04/24 16:00:41;;;;;;;5.07;1.98;;;;;;;20.63;47.31;98192.50;6267948;22;20000;-94
2024/04/24 16:03:10;;;;;;;6.28;1.98;;;;;;;20.51;46.99;98180.56;6206377;22;19997;-94
2024/04/24 16:05:36;;;;;;;6.32;2.33;;;;;;;20.36;47.71;98181.50;6207254;22;20000;-94
2024/04/24 16:08:12;;;;;;;5.43;2.03;;;;;;;20.33;47.81;98188.44;6114079;23;20009;-94
2024/04/24 16:11:11;;;;;;;7.63;2.17;;;;;;;20.27;47.71;98187.16;6118997;23;20001;-95
2024/04/24 16:13:48;;;;;;;6.07;2.83;;;;;;;20.17;47.75;98171.34;6111655;23;20001;-94
2024/04/24 16:19:29;;;;;;;8.57;2.97;;;;;;;20.33;47.90;98196.66;6119667;22;19990;-95
2024/04/24 16:22:07;;;;;;;3.50;1.73;;;;;;;20.14;47.61;98166.63;6118455;23;19998;-96
2024/04/24 16:24:39;;;;;;;4.85;2.33;;;;;;;20.14;48.98;98192.00;6124015;23;19998;-92
2024/04/24 16:27:37;;;;;;;;;;;;;;;;;;;;;
2024/04/24 16:30:16;;;;;;;5.10;2.13;;;;;;;19.85;49.28;98177.00;6160438;23;19994;-96
2024/04/24 16:32:45;;;;;;;8.30;2.33;;;;;;;19.85;49.24;98177.00;6154205;23;19997;-93
2024/04/24 16:35:17;;;;;;;4.70;2.03;;;;;;;19.67;49.43;98162.97;6115139;23;20034;-93
2024/04/24 16:38:13;;;;;;;6.45;2.63;;;;;;;19.55;50.03;98176.75;6114244;23;20078;-93
2024/04/24 16:43:33;;;;;;;6.50;2.13;;;;;;;19.43;50.61;98176.88;6123464;23;20046;-95
2024/04/24 16:45:59;;;;;;;8.25;2.33;;;;;;;19.47;51.11;98197.63;6220798;22;20046;-95
2024/04/24 16:48:26;;;;;;;5.18;2.20;;;;;;;19.35;51.04;98200.47;6210150;22;20004;-94
2024/04/24 16:50:56;;;;;;;6.75;2.28;;;;;;;19.18;51.10;98194.25;6213392;22;20038;-96
2024/04/24 16:53:26;;;;;;;21.90;3.30;;;;;;;19.04;51.91;98188.47;6209353;22;19989;-93
2024/04/24 16:55:52;;;;;;;8.68;3.45;;;;;;;18.89;52.15;98186.53;6209382;22;19997;-94
2024/04/24 16:58:18;;;;;;;9.63;2.55;;;;;;;18.82;52.30;98180.91;6208963;22;20003;-94
2024/04/24 17:00:48;;;;;;;4.28;2.30;;;;;;;18.83;52.60;98187.94;6226653;22;20289;-95
2024/04/24 17:03:19;;;;;;;8.65;2.70;;;;;;;18.58;52.87;98177.97;6252273;22;20003;-95
2024/04/24 17:05:45;;;;;;;5.05;2.33;;;;;;;18.67;52.83;98204.28;6249334;22;20000;-93
2024/04/24 17:08:11;;;;;;;4.70;2.35;;;;;;;18.36;53.42;98184.81;6246627;22;20401;-93
2024/04/24 17:10:37;;;;;;;7.05;2.10;;;;;;;18.47;53.05;98193.28;6244971;22;20008;-93
2024/04/24 17:13:04;;;;;;;7.30;2.38;;;;;;;18.48;53.05;98189.38;6246345;22;20008;-95
2024/04/24 17:15:32;;;;;;;4.03;2.13;;;;;;;18.54;53.29;98200.84;6245206;22;20065;-94
2024/04/24 17:17:58;;;;;;;8.35;1.92;;;;;;;18.43;53.28;98192.38;6246112;22;20000;-95
2024/04/24 17:20:29;;;;;;;4.93;1.90;;;;;;;18.49;52.82;98209.25;6284728;22;20393;-96
2024/04/24 17:22:55;;;;;;;8.82;2.40;;;;;;;18.45;52.56;98214.63;6246278;22;20401;-94
2024/04/24 17:25:21;;;;;;;4.68;1.90;;;;;;;18.56;52.67;98236.72;6244884;22;20004;-94
2024/04/24 17:28:04;;;;;;;7.40;2.33;;;;;;;18.44;52.50;98198.63;6247344;22;20007;-93
2024/04/24 17:30:29;;;;;;;3.50;1.90;;;;;;;18.44;53.08;98212.25;6246309;22;20023;-94
2024/04/24 17:32:55;;;;;;;4.68;2.15;;;;;;;18.41;52.85;98202.03;6245826;22;20004;-95
2024/04/24 17:35:24;;;;;;;8.05;2.10;;;;;;;18.48;53.18;98197.56;6246738;22;20008;-93
2024/04/24 17:37:50;;;;;;;6.10;2.15;;;;;;;18.43;53.45;98208.75;6286358;22;20045;-94
2024/04/24 17:40:17;;;;;;;8.38;3.10;;;;;;;18.43;53.94;98218.81;6245830;22;20017;-96
2024/04/24 17:42:43;;;;;;;6.82;3.38;;;;;;;18.16;55.35;98192.06;6285685;22;20000;-96
2024/04/24 17:45:08;;;;;;;9.55;3.20;;;;;;;18.17;55.79;98203.75;6246298;22;20010;-94
2024/04/24 17:47:44;;;;;;;10.07;3.70;;;;;;;18.12;56.71;98204.00;6248814;22;19993;-96
2024/04/24 17:50:10;;;;;;;7.25;3.38;;;;;;;18.05;57.17;98209.25;6247049;22;20007;-96
2024/04/24 17:52:35;;;;;;;8.20;3.28;;;;;;;17.97;57.44;98208.25;6244441;22;20278;-94
2024/04/24 17:55:05;;;;;;;9.75;3.20;;;;;;;17.82;57.54;98201.56;6245527;22;20305;-95
2024/04/24 17:57:34;;;;;;;10.15;3.20;;;;;;;17.81;57.86;98224.50;6325347;22;20016;-94
2024/04/24 18:00:00;;;;;;;11.77;5.20;;;;;;;17.58;58.43;98208.69;6249024;22;20025;-94
2024/04/24 18:02:26;;;;;;;11.60;5.05;;;;;;;17.66;58.69;98227.94;6207656;22;19989;-94
2024/04/24 18:04:55;;;;;;;10.60;4.45;;;;;;;17.52;58.13;98222.88;6245752;22;20008;-94
2024/04/24 18:07:23;;;;;;;8.27;3.20;;;;;;;17.43;58.56;98220.28;6246212;22;20000;-95
2024/04/24 18:09:49;;;;;;;8.95;3.40;;;;;;;17.37;58.67;98214.25;6207884;22;20004;-94
2024/04/24 18:12:14;;;;;;;15.15;3.50;;;;;;;17.28;58.92;98215.50;6205014;22;20282;-95
2024/04/24 18:14:42;;;;;;;6.68;3.63;;;;;;;17.25;59.16;98208.06;6206412;22;20005;-93
2024/04/24 18:17:11;;;;;;;12.75;5.30;;;;;;;17.41;59.35;98240.78;6208004;22;20046;-95
2024/04/24 18:19:36;;;;;;;33.20;22.40;;;;;;;17.35;59.22;98249.19;6247394;22;20012;-93
2024/04/24 18:22:02;;;;;;;29.67;24.73;;;;;;;17.06;59.49;98217.56;6207023;22;19997;-95
2024/04/24 18:24:28;;;;;;;36.60;25.27;;;;;;;16.90;60.29;98217.44;6205709;22;20025;-94
2024/04/24 18:26:54;;;;;;;24.40;19.23;;;;;;;17.01;60.35;98250.41;6206867;22;19993;-95
2024/04/24 18:29:34;;;;;;;27.88;20.33;;;;;;;16.82;60.68;98231.94;6207237;22;19997;-95
2024/04/24 18:31:59;;;;;;;22.60;16.10;;;;;;;16.95;60.93;98266.19;6209570;22;20004;-94
2024/04/24 18:34:25;;;;;;;14.23;9.20;;;;;;;16.83;60.69;98232.72;6243912;22;20092;-93
2024/04/24 18:36:51;;;;;;;18.88;9.73;;;;;;;16.75;60.94;98240.63;6204920;22;20405;-95
2024/04/24 18:39:16;;;;;;;14.77;11.23;;;;;;;16.61;61.31;98229.25;6208203;22;20004;-95
2024/04/24 18:41:43;;;;;;;17.15;12.35;;;;;;;16.68;61.49;98243.06;6206012;22;19992;-94
2024/04/24 18:44:08;;;;;;;19.92;12.35;;;;;;;16.61;62.22;98250.22;6206900;22;20049;-93
2024/04/24 18:46:34;;;;;;;16.42;8.60;;;;;;;16.35;62.17;98233.03;6205740;22;20004;-94
2024/04/24 18:49:00;;;;;;;12.80;6.97;;;;;;;16.39;61.96;98249.44;6207457;22;19997;-94
2024/04/24 18:51:25;;;;;;;11.73;6.00;;;;;;;16.35;62.19;98271.09;6207361;22;20000;-93
2024/04/24 18:53:51;;;;;;;14.60;6.22;;;;;;;16.23;62.70;98248.47;6205757;22;19996;-94
2024/04/24 18:56:17;;;;;;;12.48;6.82;;;;;;;16.33;62.67;98265.19;6206751;22;20304;-93
2024/04/24 18:58:43;;;;;;;14.10;9.60;;;;;;;16.29;62.94;98258.84;6207339;22;20004;-94
2024/04/24 19:01:08;;;;;;;18.85;8.07;;;;;;;16.17;63.31;98250.63;6271899;22;20020;-93
2024/04/24 19:03:35;;;;;;;14.63;8.05;;;;;;;16.10;63.47;98240.31;6246762;22;20004;-94
2024/04/24 19:06:00;;;;;;;12.63;8.32;;;;;;;16.14;63.70;98243.94;6245583;22;19996;-93
2024/04/24 19:08:28;;;;;;;10.90;6.00;;;;;;;16.15;63.69;98250.94;6284532;22;19989;-94
2024/04/24 19:10:54;;;;;;;10.35;4.47;;;;;;;16.16;63.45;98266.13;6285913;22;20389;-92
2024/04/24 19:13:23;;;;;;;10.68;4.97;;;;;;;16.30;63.40;98284.06;6244596;22;19993;-94
2024/04/24 19:15:49;;;;;;;10.88;5.60;;;;;;;16.27;63.97;98282.81;6247078;22;19992;-94
2024/04/24 19:18:14;;;;;;;10.50;5.40;;;;;;;16.06;65.10;98277.41;6247144;22;20004;-95
2024/04/24 19:20:41;;;;;;;13.27;5.90;;;;;;;16.00;65.68;98286.06;6245404;22;20003;-95
2024/04/24 19:23:10;;;;;;;10.48;5.38;;;;;;;15.91;65.29;98272.53;6244944;22;20063;-95
2024/04/24 19:25:36;;;;;;;9.73;5.20;;;;;;;15.95;65.17;98268.84;6245728;22;20001;-93
2024/04/24 19:28:04;;;;;;;8.93;4.50;;;;;;;15.88;64.49;98262.38;6284877;22;20001;-93
2024/04/24 19:30:30;;;;;;;11.77;5.45;;;;;;;15.94;64.70;98278.13;6284534;22;20021;-96
2024/04/24 19:32:59;;;;;;;10.18;5.07;;;;;;;15.91;64.53;98267.91;6284533;22;19997;-94
2024/04/24 19:35:24;;;;;;;13.57;5.20;;;;;;;16.08;64.47;98291.44;6246499;22;20293;-94
2024/04/24 19:37:53;;;;;;;11.00;4.45;;;;;;;16.04;63.25;98273.41;6245464;22;19989;-95
2024/04/24 19:40:22;;;;;;;8.20;3.97;;;;;;;16.18;62.68;98279.34;6245481;22;19997;-95
2024/04/24 19:42:50;;;;;;;7.97;3.40;;;;;;;16.23;62.04;98262.06;6246553;22;19993;-95
2024/04/24 19:45:16;;;;;;;15.18;4.95;;;;;;;16.28;63.00;98262.66;6245552;22;19996;-94
2024/04/24 19:47:41;;;;;;;10.25;5.25;;;;;;;16.10;65.13;98266.66;6245114;22;20300;-93
2024/04/24 19:50:07;;;;;;;14.13;4.97;;;;;;;16.10;64.69;98250.34;6247113;22;19988;-93
2024/04/24 19:52:36;;;;;;;14.52;6.07;;;;;;;16.27;64.49;98280.09;6245899;22;20421;-94
2024/04/24 19:55:02;;;;;;;15.57;5.70;;;;;;;16.21;64.64;98278.72;6248404;22;20415;-93
2024/04/24 19:57:28;;;;;;;12.38;4.53;;;;;;;16.25;64.36;98268.78;6286303;22;20001;-93
2024/04/24 19:59:56;;;;;;;9.68;4.57;;;;;;;16.09;65.04;98254.22;6256591;22;20398;-92
2024/04/24 20:02:22;;;;;;;9.15;4.30;;;;;;;16.11;65.11;98254.69;6294116;22;20012;-93
2024/04/24 20:04:50;;;;;;;11.52;4.03;;;;;;;16.19;65.29;98275.53;6295209;22;20000;-93
2024/04/24 20:07:18;;;;;;;18.15;4.70;;;;;;;16.14;64.91;98252.09;6334930;22;20007;-94
2024/04/24 20:09:44;;;;;;;12.05;5.00;;;;;;;15.95;65.49;98243.63;6334147;22;19996;-94
2024/04/24 20:12:10;;;;;;;12.85;5.18;;;;;;;15.91;65.58;98248.91;6294092;22;20004;-93
2024/04/24 20:14:36;;;;;;;9.57;4.43;;;;;;;15.93;66.09;98273.81;6295174;22;20079;-94
2024/04/24 20:17:01;;;;;;;14.20;5.25;;;;;;;15.82;65.41;98241.97;6293222;22;19999;-94
2024/04/24 20:19:27;;;;;;;15.77;4.45;;;;;;;15.73;65.56;98245.53;6294073;22;20060;-94
2024/04/24 20:21:56;;;;;;;15.10;4.70;;;;;;;15.91;66.00;98286.91;6333552;22;19992;-93
2024/04/24 20:24:25;;;;;;;24.08;5.75;;;;;;;15.69;67.39;98254.66;6297438;22;20002;-95
2024/04/24 20:26:50;;;;;;;14.93;5.07;;;;;;;15.50;67.43;98255.88;6295490;22;20008;-95
2024/04/24 20:29:18;;;;;;;9.25;4.07;;;;;;;15.35;67.84;98267.28;6333984;22;20043;-92
2024/04/24 20:31:46;;;;;;;12.88;4.25;;;;;;;15.43;68.19;98266.44;6333804;22;19996;-92
2024/04/24 20:34:16;;;;;;;9.15;4.30;;;;;;;15.54;67.62;98266.84;6295850;22;20007;-92
2024/04/24 20:36:42;;;;;;;12.52;4.82;;;;;;;15.57;67.67;98258.84;6334908;22;20007;-93
2024/04/24 20:39:13;;;;;;;12.65;6.32;;;;;;;15.70;67.44;98276.00;6294676;22;19992;-95
2024/04/24 20:41:42;;;;;;;11.48;5.07;;;;;;;15.54;67.66;98256.00;6334070;22;19995;-94
2024/04/24 20:44:07;;;;;;;9.60;4.07;;;;;;;15.79;67.36;98292.25;6333338;22;19996;-92